You are listening to:
RJAA Radar 132.1 - Tokyo, Japan

RJAA 231000Z 05005KT 020V090 9999 FEW015 SCT035 BKN050 17/13 Q1017 NOSIG

If stream doesn't start automatically press the play button
If stream stops then reload player then press play